Koppie Airport

Jump to: basic info | weather | runways | comments

Related pages: nearby airports | nearby navaids | notams | map

Basic information (top)

Codes: 7IS5
Location: lon 42.121399, lat -88.378098, elev 890 ft / 271 m msl
Status: small_airport

Weather (top)

Current conditions for Dupage Airport 14nm (26km) SSE (rec'd 2014/10/21 09:52Z):

KDPA 210952Z 36008KT 10SM OVC048 09/04 A3005 RMK AO2 SLP177 T00890044

Airport forecast for Dupage Airport 14nm (26km) SSE (rec'd 2014/10/21 06:27Z):

TAF KDPA 210525Z 2106/2206 36007KT P6SM OVC050 
     FM210900 35008KT P6SM SCT025 OVC040 
     FM211300 01011G16KT P6SM SCT015 BKN025 
     FM211900 03011G17KT P6SM BKN035 
     FM220000 04005KT P6SM FEW040

Runways (top)

N/S: 2,300 x 100 ft (701 x 30 m) — grass — not lighted

Latest comments (top)

No comments yet for Koppie Airport

More... (top)

See also NOTAMs and nearby airports and navaids, or visit the Koppie Airport page at the main OurAirports website..